Terminal Aerodrome Forecast
Issued by NWS

Home | Current Version | Previous Version | Text Only | Print | Product List | Glossary On
Versions: 1 2 3 4 5 6 7 8 9 10 11 12 13 14
000
FTUS45 KSLC 201316 AAA
TAFSGU
TAF AMD
KSGU 201316Z 2013/2112 VRB05KT P6SM VCSH SCT100
     FM201600 VRB05KT P6SM SCT120
     FM202000 25008KT P6SM FEW120
     FM210300 14007KT P6SM FEW120=

USA.gov is the U.S. government's official web portal to all federal, state and local government web resources and services.